Time;durP1;ratioP1;P1;durP2;ratioP2;P2;SDS_P1;SDS_P2;PMS_P1;PMS_P2;Temp;Humidity;BMP_temperature;BMP_pressure;BME280_temperature;BME280_humidity;BME280_pressure;Samples;Min_cycle;Max_cycle;Signal;HPM_P1;HPM_P2
2022/03/19 00:01:49;;;;;;;10.45;1.48;;;22.10;99.90;;;;;;5065899;28;20082;-75
2022/03/19 00:04:16;;;;;;;4.50;0.77;;;22.20;99.90;;;;;;5059697;28;20384;-75
2022/03/19 00:06:47;;;;;;;3.53;0.98;;;22.20;99.90;;;;;;5060139;28;20570;-74
2022/03/19 00:09:14;;;;;;;5.03;1.35;;;22.30;99.90;;;;;;5067672;28;20036;-74
2022/03/19 00:11:42;;;;;;;2.90;0.98;;;22.60;99.90;;;;;;5063188;28;20036;-74
2022/03/19 00:14:12;;;;;;;6.78;0.98;;;22.80;99.90;;;;;;5052560;28;20562;-74
2022/03/19 00:16:40;;;;;;;7.13;1.88;;;23.00;99.90;;;;;;5059932;28;20078;-74
2022/03/19 00:19:08;;;;;;;12.60;1.48;;;23.10;99.90;;;;;;5052075;28;20483;-75
2022/03/19 00:21:37;;;;;;;3.92;1.05;;;23.10;99.90;;;;;;5062900;28;20069;-74
2022/03/19 00:24:06;;;;;;;4.72;0.65;;;23.20;99.90;;;;;;5058854;28;20399;-73
2022/03/19 00:26:33;;;;;;;4.15;1.15;;;23.20;99.90;;;;;;5062973;28;20343;-74
2022/03/19 00:29:01;;;;;;;3.70;1.30;;;23.30;99.90;;;;;;5059891;28;20028;-75
2022/03/19 00:31:28;;;;;;;7.43;1.65;;;23.30;99.90;;;;;;5062307;28;20028;-74
2022/03/19 00:33:56;;;;;;;6.55;1.00;;;23.20;99.90;;;;;;5064536;28;20500;-74
2022/03/19 00:36:24;;;;;;;5.95;1.85;;;23.20;99.90;;;;;;5070398;28;20033;-74
2022/03/19 00:38:52;;;;;;;9.68;1.48;;;23.20;99.90;;;;;;5055822;28;20471;-73
2022/03/19 00:41:19;;;;;;;4.53;1.02;;;23.10;99.90;;;;;;5051279;28;20163;-75
2022/03/19 00:43:47;;;;;;;4.72;1.23;;;23.10;99.90;;;;;;5060323;28;20403;-74
2022/03/19 00:46:15;;;;;;;7.63;2.05;;;23.00;99.90;;;;;;5050947;28;20032;-75
2022/03/19 00:48:46;;;;;;;6.75;1.02;;;22.80;99.90;;;;;;5061198;28;20028;-75
2022/03/19 00:51:13;;;;;;;4.20;1.20;;;22.50;99.90;;;;;;5070527;28;20032;-75
2022/03/19 00:53:41;;;;;;;5.95;1.13;;;22.50;99.90;;;;;;5068700;28;20031;-75
2022/03/19 00:56:08;;;;;;;5.45;1.80;;;22.30;99.90;;;;;;5066123;28;20028;-75
2022/03/19 00:58:35;;;;;;;6.40;1.15;;;22.00;99.90;;;;;;5068383;28;20116;-75
2022/03/19 01:01:04;;;;;;;2.97;0.70;;;21.60;99.90;;;;;;5051886;28;20083;-75
2022/03/19 01:03:32;;;;;;;2.10;0.50;;;21.30;99.90;;;;;;5077006;28;20037;-75
2022/03/19 01:05:59;;;;;;;8.45;1.52;;;21.10;99.90;;;;;;5071433;28;20099;-75
2022/03/19 01:08:27;;;;;;;3.50;1.40;;;20.90;99.90;;;;;;5068364;28;20037;-76
2022/03/19 01:10:54;;;;;;;3.88;0.80;;;20.90;99.90;;;;;;5063072;28;20090;-76
2022/03/19 01:13:22;;;;;;;1.05;0.35;;;21.00;99.90;;;;;;5061011;28;20493;-76
2022/03/19 01:15:50;;;;;;;3.35;0.60;;;21.30;99.90;;;;;;5069842;28;20081;-76
2022/03/19 01:18:17;;;;;;;2.72;0.70;;;21.60;99.90;;;;;;5072141;28;20036;-76
2022/03/19 01:20:44;;;;;;;3.65;0.82;;;21.80;99.90;;;;;;5058062;28;20036;-75
2022/03/19 01:23:12;;;;;;;4.90;0.80;;;21.90;99.90;;;;;;5063650;28;20390;-76
2022/03/19 01:25:39;;;;;;;1.15;0.50;;;21.90;99.90;;;;;;5073463;28;20029;-75
2022/03/19 01:28:07;;;;;;;1.23;0.77;;;22.00;99.90;;;;;;5069714;28;20028;-74
2022/03/19 01:30:34;;;;;;;0.98;0.40;;;22.10;99.90;;;;;;5074729;28;20531;-75
2022/03/19 01:33:01;;;;;;;1.88;0.70;;;22.20;99.90;;;;;;5069665;28;20471;-74
2022/03/19 01:35:29;;;;;;;1.73;0.57;;;22.30;99.90;;;;;;5069018;28;20033;-76
2022/03/19 01:37:56;;;;;;;3.08;0.50;;;22.40;99.90;;;;;;5057728;28;20024;-76
2022/03/19 01:40:24;;;;;;;3.03;0.88;;;22.40;99.90;;;;;;5054136;28;20529;-74
2022/03/19 01:42:52;;;;;;;1.15;0.20;;;22.50;99.90;;;;;;5071148;28;20047;-75
2022/03/19 01:45:25;;;;;;;4.32;0.95;;;22.60;99.90;;;;;;5074276;28;20032;-74
2022/03/19 01:47:54;;;;;;;2.45;0.50;;;22.80;99.90;;;;;;5066529;28;20025;-74
2022/03/19 01:50:24;;;;;;;4.65;0.60;;;23.20;99.90;;;;;;5055119;28;20047;-74
2022/03/19 01:52:51;;;;;;;1.73;0.70;;;23.40;99.90;;;;;;5059475;28;20039;-74
2022/03/19 01:55:25;;;;;;;8.52;0.98;;;23.70;99.90;;;;;;5064909;28;20538;-74
2022/03/19 01:57:53;;;;;;;5.60;0.98;;;24.40;99.90;;;;;;5055704;28;20025;-73
2022/03/19 02:00:22;;;;;;;3.75;0.60;;;24.60;99.90;;;;;;5061728;28;20094;-74
2022/03/19 02:02:51;;;;;;;2.50;0.55;;;24.40;99.90;;;;;;5066410;28;20033;-73
2022/03/19 02:05:21;;;;;;;4.13;0.68;;;24.10;99.90;;;;;;5059514;28;20039;-73
2022/03/19 02:07:49;;;;;;;2.45;0.70;;;23.70;99.90;;;;;;5072572;28;20036;-74
2022/03/19 02:10:18;;;;;;;3.58;1.10;;;23.60;99.90;;;;;;5074212;28;20020;-73
2022/03/19 02:12:46;;;;;;;4.63;0.70;;;23.70;99.90;;;;;;5070499;28;20493;-74
2022/03/19 02:15:14;;;;;;;3.13;0.82;;;23.70;99.90;;;;;;5060144;28;20451;-74
2022/03/19 02:17:42;;;;;;;5.13;1.15;;;23.80;99.90;;;;;;5064768;28;20033;-73
2022/03/19 02:20:10;;;;;;;4.38;1.02;;;23.90;99.90;;;;;;5073762;28;20482;-73
2022/03/19 02:22:38;;;;;;;3.17;1.52;;;24.30;99.90;;;;;;5071696;28;20107;-74
2022/03/19 02:27:51;;;;;;;3.78;1.05;;;24.90;99.90;;;;;;5071435;28;20551;-73
2022/03/19 02:30:19;;;;;;;5.82;0.70;;;25.00;99.90;;;;;;5072899;28;20032;-74
2022/03/19 02:32:50;;;;;;;2.88;0.98;;;25.00;99.90;;;;;;5071760;28;20478;-74
2022/03/19 02:35:19;;;;;;;2.47;0.63;;;25.30;99.90;;;;;;5061359;28;20386;-74
2022/03/19 02:37:50;;;;;;;2.72;0.57;;;25.80;99.90;;;;;;5053800;28;20435;-74
2022/03/19 02:40:21;;;;;;;2.55;0.85;;;26.00;99.90;;;;;;5053408;28;20112;-73
2022/03/19 02:42:54;;;;;;;3.10;0.52;;;26.20;99.90;;;;;;5065204;28;20028;-74
2022/03/19 02:45:22;;;;;;;6.10;1.38;;;26.60;99.90;;;;;;5065075;28;20101;-73
2022/03/19 02:47:59;;;;;;;2.67;0.70;;;26.60;99.90;;;;;;5069788;28;20017;-72
2022/03/19 02:50:34;;;;;;;4.22;0.73;;;26.10;99.90;;;;;;5073146;28;20029;-74
2022/03/19 02:53:05;;;;;;;3.92;1.15;;;26.20;99.90;;;;;;5071000;28;20557;-74
2022/03/19 02:55:38;;;;;;;5.85;1.60;;;25.90;99.90;;;;;;5065776;28;20403;-74
2022/03/19 02:58:07;;;;;;;6.68;1.50;;;25.70;99.90;;;;;;5052211;28;20029;-73
2022/03/19 03:00:35;;;;;;;5.07;0.75;;;25.50;99.90;;;;;;5063922;28;20387;-74
2022/03/19 03:03:04;;;;;;;4.97;0.85;;;25.40;99.90;;;;;;5066001;28;20082;-73
2022/03/19 03:05:31;;;;;;;7.20;1.88;;;25.20;99.90;;;;;;5067655;28;20432;-74
2022/03/19 03:07:58;;;;;;;4.85;1.52;;;25.10;99.90;;;;;;5070877;28;20383;-74
2022/03/19 03:10:26;;;;;;;5.43;1.05;;;25.00;99.90;;;;;;5055934;28;20037;-73
2022/03/19 03:12:53;;;;;;;5.90;1.35;;;24.70;99.90;;;;;;5059416;28;20029;-73
2022/03/19 03:15:21;;;;;;;6.05;0.88;;;24.50;99.90;;;;;;5072615;28;20044;-73
2022/03/19 03:17:48;;;;;;;7.40;1.25;;;24.20;99.90;;;;;;5070139;28;20028;-75
2022/03/19 03:20:15;;;;;;;9.25;1.33;;;24.00;99.90;;;;;;5068370;28;20078;-73
2022/03/19 03:22:44;;;;;;;3.83;1.10;;;23.70;99.90;;;;;;5069513;28;20049;-74
2022/03/19 03:25:11;;;;;;;3.85;0.90;;;23.50;99.90;;;;;;5076009;28;20097;-73
2022/03/19 03:27:39;;;;;;;4.20;0.70;;;23.40;99.90;;;;;;5071123;28;20055;-74
2022/03/19 03:30:07;;;;;;;4.20;0.90;;;23.40;99.90;;;;;;5058037;28;20029;-74
2022/03/19 03:32:34;;;;;;;2.53;0.52;;;23.20;99.90;;;;;;5055888;28;20033;-75
2022/03/19 03:35:02;;;;;;;5.63;0.73;;;23.10;99.90;;;;;;5054212;28;20036;-74
2022/03/19 03:37:29;;;;;;;5.53;1.20;;;23.10;99.90;;;;;;5052635;28;20445;-74
2022/03/19 03:39:56;;;;;;;6.68;0.93;;;23.10;99.90;;;;;;5051542;28;20045;-74
2022/03/19 03:42:24;;;;;;;8.55;1.67;;;23.10;99.90;;;;;;5054151;28;20029;-75
2022/03/19 03:44:54;;;;;;;5.80;1.05;;;23.20;99.90;;;;;;5072189;28;20025;-75
2022/03/19 03:47:22;;;;;;;7.22;1.52;;;23.30;99.90;;;;;;5070175;28;20040;-74
2022/03/19 03:49:52;;;;;;;5.65;0.98;;;23.40;99.90;;;;;;5068347;28;20081;-73
2022/03/19 03:52:21;;;;;;;9.27;2.30;;;23.70;99.90;;;;;;5068007;28;20467;-75
2022/03/19 03:54:48;;;;;;;7.65;1.17;;;24.10;99.90;;;;;;5078946;28;20028;-75
2022/03/19 03:57:17;;;;;;;9.18;1.13;;;24.30;99.90;;;;;;5085601;28;20067;-73
2022/03/19 03:59:44;;;;;;;10.57;1.55;;;24.40;99.90;;;;;;5050448;28;20032;-73
2022/03/19 04:02:11;;;;;;;5.35;0.80;;;24.60;99.90;;;;;;5051863;28;20032;-74
2022/03/19 04:04:39;;;;;;;5.18;1.45;;;24.50;99.90;;;;;;5071747;28;20482;-74
2022/03/19 04:07:06;;;;;;;5.78;0.95;;;24.50;99.90;;;;;;5069056;28;20020;-74
2022/03/19 04:09:33;;;;;;;8.52;1.83;;;24.40;99.90;;;;;;5062993;28;20029;-74
2022/03/19 04:12:03;;;;;;;4.82;1.02;;;24.40;99.90;;;;;;5069837;28;21698;-73
2022/03/19 04:14:31;;;;;;;7.07;0.82;;;24.50;99.90;;;;;;5071409;28;20024;-74
2022/03/19 04:16:59;;;;;;;10.40;2.08;;;24.70;99.90;;;;;;5070527;28;20027;-74
2022/03/19 04:19:26;;;;;;;4.78;1.13;;;24.90;99.90;;;;;;5064246;28;20017;-73
2022/03/19 04:21:53;;;;;;;6.13;1.67;;;24.90;99.90;;;;;;5055949;28;20032;-74
2022/03/19 04:24:21;;;;;;;6.05;1.10;;;24.80;99.90;;;;;;5069683;28;20043;-74
2022/03/19 04:26:48;;;;;;;5.10;0.82;;;24.70;99.90;;;;;;5071439;28;20487;-73
2022/03/19 04:29:15;;;;;;;3.92;0.95;;;24.60;99.90;;;;;;5066238;28;20395;-73
2022/03/19 04:31:43;;;;;;;4.40;1.13;;;24.60;99.90;;;;;;5071612;28;20029;-74
2022/03/19 04:34:10;;;;;;;5.45;1.02;;;24.60;99.90;;;;;;5059156;28;20094;-74
2022/03/19 04:36:37;;;;;;;9.20;1.67;;;24.60;99.90;;;;;;5051253;28;20033;-75
2022/03/19 04:39:06;;;;;;;6.70;1.35;;;24.70;99.90;;;;;;5056446;28;20028;-75
2022/03/19 04:41:35;;;;;;;5.60;1.02;;;24.60;99.90;;;;;;5051803;28;20025;-74
2022/03/19 04:44:04;;;;;;;5.80;0.98;;;24.60;99.90;;;;;;5064065;28;20473;-74
2022/03/19 04:46:31;;;;;;;2.55;0.88;;;24.60;99.90;;;;;;5070902;28;20029;-74
2022/03/19 04:48:59;;;;;;;4.25;1.05;;;24.70;99.90;;;;;;5053447;28;20116;-74
2022/03/19 04:51:38;;;;;;;3.60;1.20;;;24.80;99.90;;;;;;5057096;28;20036;-74
2022/03/19 04:54:08;;;;;;;4.28;0.95;;;24.80;99.60;;;;;;5062478;28;20031;-73
2022/03/19 04:56:36;;;;;;;6.93;0.70;;;24.60;99.20;;;;;;5071278;28;20031;-75
2022/03/19 04:59:04;;;;;;;4.28;1.08;;;24.40;99.50;;;;;;5052410;28;20028;-74
2022/03/19 05:01:33;;;;;;;5.10;0.63;;;24.20;99.90;;;;;;5050864;28;20028;-74
2022/03/19 05:04:01;;;;;;;3.35;0.73;;;24.10;99.90;;;;;;5066680;28;20505;-74
2022/03/19 05:06:28;;;;;;;2.72;0.73;;;24.10;99.80;;;;;;5070247;28;20532;-74
2022/03/19 05:11:42;;;;;;;2.40;0.85;;;24.20;99.90;;;;;;5050329;28;20382;-73
2022/03/19 05:14:10;;;;;;;5.28;1.02;;;24.10;99.80;;;;;;5057830;28;20043;-74
2022/03/19 05:16:38;;;;;;;4.93;0.63;;;24.10;99.70;;;;;;5057472;28;20040;-73
2022/03/19 05:19:06;;;;;;;6.93;1.00;;;24.00;99.60;;;;;;5064333;28;20039;-73
2022/03/19 05:21:34;;;;;;;4.43;1.08;;;24.00;99.70;;;;;;5071437;28;20020;-75
2022/03/19 05:24:01;;;;;;;2.55;0.85;;;24.00;99.90;;;;;;5069285;28;20044;-74
2022/03/19 05:26:29;;;;;;;4.55;1.17;;;23.90;99.90;;;;;;5070384;28;20040;-74
2022/03/19 05:28:57;;;;;;;6.53;0.85;;;23.90;99.70;;;;;;5067811;28;20033;-76
2022/03/19 05:31:25;;;;;;;11.80;0.98;;;24.00;99.90;;;;;;5063586;28;20106;-74
2022/03/19 05:36:39;;;;;;;6.45;1.02;;;23.90;99.00;;;;;;5065397;28;20423;-73
2022/03/19 05:39:07;;;;;;;4.57;1.27;;;23.90;99.00;;;;;;5067478;28;20048;-74
2022/03/19 05:41:34;;;;;;;3.30;0.77;;;24.00;98.90;;;;;;5071081;28;20099;-73
2022/03/19 05:44:02;;;;;;;5.30;0.98;;;24.00;98.80;;;;;;5055830;28;20052;-73
2022/03/19 05:46:29;;;;;;;3.75;1.23;;;24.00;98.40;;;;;;5049354;28;20121;-74
2022/03/19 05:48:57;;;;;;;5.55;0.88;;;24.00;98.50;;;;;;5052790;28;20140;-75
2022/03/19 05:51:24;;;;;;;4.80;1.02;;;23.90;98.70;;;;;;5053272;28;20021;-73
2022/03/19 05:53:52;;;;;;;7.75;1.58;;;24.00;98.30;;;;;;5067286;28;20035;-75
2022/03/19 05:56:19;;;;;;;7.93;0.85;;;24.00;98.50;;;;;;5091043;28;20530;-74
2022/03/19 05:58:47;;;;;;;3.50;0.98;;;24.00;98.10;;;;;;5062911;28;20033;-74
2022/03/19 06:01:14;;;;;;;6.43;1.33;;;24.00;98.30;;;;;;5070284;28;20097;-75
2022/03/19 06:03:41;;;;;;;6.88;0.93;;;24.00;98.40;;;;;;5069206;28;20451;-75
2022/03/19 06:06:10;;;;;;;5.85;1.38;;;23.90;98.50;;;;;;5064127;28;20037;-74
2022/03/19 06:08:37;;;;;;;8.63;1.63;;;23.80;99.20;;;;;;5054590;28;20490;-74
2022/03/19 06:11:04;;;;;;;5.50;1.95;;;23.70;99.10;;;;;;5062849;28;20040;-74
2022/03/19 06:13:32;;;;;;;6.45;1.17;;;23.60;99.40;;;;;;5068429;28;20497;-74
2022/03/19 06:15:59;;;;;;;8.07;1.13;;;23.50;99.70;;;;;;5067532;28;20144;-76
2022/03/19 06:18:27;;;;;;;4.65;1.13;;;23.40;99.90;;;;;;5064942;28;20028;-76
2022/03/19 06:20:57;;;;;;;11.23;1.30;;;23.40;99.90;;;;;;5074150;28;20428;-74
2022/03/19 06:23:25;;;;;;;7.70;1.30;;;23.40;99.90;;;;;;5070779;28;20032;-74
2022/03/19 06:25:53;;;;;;;6.50;2.10;;;23.50;99.90;;;;;;5071745;28;20037;-74
2022/03/19 06:28:21;;;;;;;4.25;1.75;;;23.50;99.90;;;;;;5071982;28;20032;-74
2022/03/19 06:30:48;;;;;;;9.52;0.93;;;23.60;99.90;;;;;;5072713;28;20040;-73
2022/03/19 06:33:16;;;;;;;11.38;1.83;;;23.70;99.90;;;;;;5062798;28;20029;-75
2022/03/19 06:38:31;;;;;;;8.23;1.38;;;23.80;99.90;;;;;;5065180;28;20063;-73
2022/03/19 06:40:59;;;;;;;5.75;1.13;;;24.00;99.90;;;;;;5062115;28;20028;-74
2022/03/19 06:43:27;;;;;;;5.63;1.45;;;24.10;99.90;;;;;;5059164;28;20415;-72
2022/03/19 06:45:57;;;;;;;8.30;2.47;;;24.30;99.90;;;;;;5057617;28;20041;-73
2022/03/19 06:48:27;;;;;;;4.10;0.98;;;24.40;99.30;;;;;;5064564;28;20025;-72
2022/03/19 06:50:55;;;;;;;7.50;1.35;;;24.30;99.40;;;;;;5053382;28;20021;-73
2022/03/19 06:53:24;;;;;;;4.63;1.73;;;24.20;99.60;;;;;;5063330;28;20363;-73
2022/03/19 06:55:52;;;;;;;6.50;1.10;;;24.10;99.90;;;;;;5061633;28;20029;-75
2022/03/19 06:58:21;;;;;;;6.93;0.80;;;23.90;99.90;;;;;;5060522;28;20096;-76
2022/03/19 07:00:49;;;;;;;9.80;1.23;;;23.80;99.90;;;;;;5062825;28;20494;-73
2022/03/19 07:03:16;;;;;;;10.85;2.05;;;23.70;99.90;;;;;;5062931;28;20066;-74
2022/03/19 07:05:44;;;;;;;7.35;1.35;;;23.60;99.90;;;;;;5052531;28;20076;-72
2022/03/19 07:08:12;;;;;;;4.35;1.35;;;23.60;99.90;;;;;;5061966;28;20131;-75
2022/03/19 07:10:40;;;;;;;5.80;1.45;;;23.60;99.90;;;;;;5061122;28;20116;-74
2022/03/19 07:13:07;;;;;;;7.72;1.50;;;23.60;99.90;;;;;;5059661;28;20040;-73
2022/03/19 07:15:35;;;;;;;9.55;1.52;;;23.50;99.90;;;;;;5064904;28;20032;-74
2022/03/19 07:18:03;;;;;;;8.98;1.58;;;23.30;99.90;;;;;;5079035;28;20040;-74
2022/03/19 07:20:32;;;;;;;8.50;1.63;;;23.30;99.90;;;;;;5083150;28;20044;-74
2022/03/19 07:23:09;;;;;;;9.40;1.92;;;23.20;99.90;;;;;;5057716;28;20520;-72
2022/03/19 07:25:41;;;;;;;5.25;1.10;;;23.10;99.90;;;;;;5054627;28;20560;-73
2022/03/19 07:28:14;;;;;;;10.68;1.25;;;23.00;99.90;;;;;;5061838;28;20470;-76
2022/03/19 07:30:41;;;;;;;9.82;1.17;;;22.90;99.90;;;;;;5063653;28;20262;-73
2022/03/19 07:33:11;;;;;;;5.50;1.40;;;22.60;99.90;;;;;;5052430;28;20017;-73
2022/03/19 07:35:40;;;;;;;6.95;1.35;;;22.40;99.90;;;;;;5064967;28;20028;-74
2022/03/19 07:38:09;;;;;;;14.65;2.47;;;22.20;99.90;;;;;;5070333;28;20057;-73
2022/03/19 07:43:22;;;;;;;5.80;1.30;;;22.10;99.90;;;;;;5058203;28;20053;-74
2022/03/19 07:45:51;;;;;;;9.80;1.95;;;22.00;99.90;;;;;;5059808;28;20131;-74
2022/03/19 07:48:20;;;;;;;6.65;1.42;;;21.90;99.90;;;;;;5061914;28;20048;-74
2022/03/19 07:50:48;;;;;;;12.27;1.02;;;21.90;99.90;;;;;;5071787;28;20028;-74
2022/03/19 07:53:15;;;;;;;8.52;2.05;;;21.80;99.90;;;;;;5068981;28;20062;-73
2022/03/19 07:55:43;;;;;;;10.35;2.17;;;21.70;99.90;;;;;;5071886;28;20063;-74
2022/03/19 07:58:13;;;;;;;6.65;1.33;;;21.60;99.90;;;;;;5069717;28;20029;-75
2022/03/19 08:00:40;;;;;;;6.22;1.13;;;21.50;99.90;;;;;;5066281;28;20031;-73
2022/03/19 08:03:10;;;;;;;6.13;1.42;;;21.40;99.90;;;;;;5059199;28;20036;-74
2022/03/19 08:05:40;;;;;;;7.72;1.25;;;21.30;99.90;;;;;;5054049;28;20033;-73
2022/03/19 08:08:08;;;;;;;8.20;2.55;;;21.30;99.90;;;;;;5055528;28;20032;-74
2022/03/19 08:10:39;;;;;;;9.55;2.22;;;21.10;99.90;;;;;;5055063;28;20090;-77
2022/03/19 08:13:08;;;;;;;11.38;1.98;;;21.10;99.90;;;;;;5061132;28;20017;-73
2022/03/19 08:15:38;;;;;;;6.43;2.22;;;21.20;99.90;;;;;;5051683;28;20040;-74
2022/03/19 08:18:06;;;;;;;7.82;2.25;;;21.30;99.90;;;;;;5058480;28;20016;-75
2022/03/19 08:20:33;;;;;;;8.55;1.48;;;21.30;99.90;;;;;;5055546;28;20044;-74
2022/03/19 08:23:01;;;;;;;9.35;1.73;;;21.30;99.90;;;;;;5057737;28;20082;-73
2022/03/19 08:25:28;;;;;;;7.10;1.08;;;21.40;99.90;;;;;;5058755;28;20047;-73
2022/03/19 08:27:57;;;;;;;8.65;1.85;;;21.50;99.90;;;;;;5061186;28;20025;-73
2022/03/19 08:30:24;;;;;;;4.85;1.63;;;21.50;99.90;;;;;;5055053;28;20028;-73
2022/03/19 08:32:51;;;;;;;9.52;2.40;;;21.50;99.90;;;;;;5054675;28;20070;-73
2022/03/19 08:35:19;;;;;;;11.48;2.35;;;21.40;99.90;;;;;;5060945;28;20025;-74
2022/03/19 08:37:47;;;;;;;8.07;1.80;;;21.30;99.90;;;;;;5051744;28;20025;-75
2022/03/19 08:40:17;;;;;;;11.73;2.60;;;21.10;99.90;;;;;;5057743;28;20028;-74
2022/03/19 08:42:52;;;;;;;11.23;2.17;;;21.10;99.90;;;;;;5056367;28;20045;-74
2022/03/19 08:45:20;;;;;;;9.82;1.63;;;20.90;99.90;;;;;;5055232;28;20123;-74
2022/03/19 08:47:51;;;;;;;5.68;1.55;;;20.80;99.90;;;;;;5066494;28;20431;-75
2022/03/19 08:50:18;;;;;;;7.93;2.22;;;20.80;99.90;;;;;;5065618;28;20112;-74
2022/03/19 08:52:45;;;;;;;7.50;2.10;;;20.70;99.90;;;;;;5052791;28;20118;-74
2022/03/19 08:55:13;;;;;;;9.45;1.80;;;20.60;99.90;;;;;;5060920;28;20038;-74
2022/03/19 08:57:40;;;;;;;10.35;2.65;;;20.50;99.90;;;;;;5068550;28;20032;-75
2022/03/19 09:00:08;;;;;;;6.40;1.17;;;20.40;99.90;;;;;;5069876;28;20032;-75
2022/03/19 09:02:36;;;;;;;4.05;1.13;;;20.30;99.90;;;;;;5063790;28;20144;-75
2022/03/19 09:05:04;;;;;;;4.97;1.25;;;20.20;99.90;;;;;;5050522;28;20079;-75
2022/03/19 09:07:31;;;;;;;7.40;1.40;;;20.20;99.90;;;;;;5051400;28;20029;-76
2022/03/19 09:09:58;;;;;;;7.93;1.55;;;20.20;99.90;;;;;;5051279;28;20376;-76
2022/03/19 09:12:27;;;;;;;5.90;1.55;;;20.10;99.90;;;;;;5066494;28;20032;-75
2022/03/19 09:14:56;;;;;;;9.15;1.45;;;20.10;99.90;;;;;;5051234;28;20039;-74
2022/03/19 09:17:23;;;;;;;6.68;1.50;;;20.10;99.90;;;;;;5050114;28;20036;-75
2022/03/19 09:19:50;;;;;;;8.18;1.70;;;20.00;99.90;;;;;;5049725;28;20029;-72
2022/03/19 09:22:18;;;;;;;6.45;1.10;;;20.00;99.90;;;;;;5051083;28;20119;-74
2022/03/19 09:24:45;;;;;;;8.20;2.78;;;20.00;99.90;;;;;;5069873;28;20107;-72
2022/03/19 09:27:13;;;;;;;2.60;1.08;;;19.90;99.90;;;;;;5050505;28;20052;-76
2022/03/19 09:29:42;;;;;;;6.68;1.40;;;19.80;99.90;;;;;;5054672;28;20080;-76
2022/03/19 09:32:12;;;;;;;9.77;2.72;;;19.80;99.90;;;;;;5050452;28;20045;-77
2022/03/19 09:34:41;;;;;;;3.80;1.40;;;19.70;99.90;;;;;;5068973;28;20090;-75
2022/03/19 09:37:08;;;;;;;7.63;0.82;;;19.60;99.90;;;;;;5050393;28;20021;-76
2022/03/19 09:39:36;;;;;;;4.47;1.05;;;19.50;99.90;;;;;;5054510;28;20072;-75
2022/03/19 09:42:04;;;;;;;6.72;2.10;;;19.40;99.90;;;;;;5071435;28;20017;-72
2022/03/19 09:44:32;;;;;;;6.18;1.50;;;19.40;99.90;;;;;;5067985;28;20082;-73
2022/03/19 09:47:00;;;;;;;6.70;1.60;;;19.40;99.90;;;;;;5052791;28;20025;-73
2022/03/19 09:49:27;;;;;;;12.02;1.88;;;19.50;99.90;;;;;;5053678;28;20467;-74
2022/03/19 09:51:56;;;;;;;9.52;1.50;;;19.50;99.90;;;;;;5053055;28;20077;-74
2022/03/19 09:54:24;;;;;;;8.85;1.35;;;19.50;99.90;;;;;;5062219;28;20428;-72
2022/03/19 09:56:52;;;;;;;3.45;0.73;;;19.50;99.90;;;;;;5056975;28;20033;-74
2022/03/19 09:59:24;;;;;;;12.88;3.03;;;19.50;99.90;;;;;;5055919;28;20078;-73
2022/03/19 10:01:52;;;;;;;4.95;1.90;;;19.50;99.90;;;;;;5063122;28;20033;-73
2022/03/19 10:04:20;;;;;;;6.93;1.73;;;19.50;99.90;;;;;;5065650;28;20368;-73
2022/03/19 10:09:47;;;;;;;6.85;2.75;;;19.40;99.90;;;;;;5052739;28;20493;-75
2022/03/19 10:12:30;;;;;;;7.47;2.33;;;19.30;99.90;;;;;;5051649;28;20037;-74
2022/03/19 10:14:59;;;;;;;5.10;2.28;;;19.30;99.90;;;;;;5052734;28;20041;-75
2022/03/19 10:17:37;;;;;;;17.98;2.75;;;19.30;99.90;;;;;;5054991;28;20044;-74
2022/03/19 10:20:11;;;;;;;9.43;1.70;;;19.30;99.90;;;;;;5061387;28;20036;-74
2022/03/19 10:22:46;;;;;;;10.52;2.30;;;19.30;99.90;;;;;;5067996;28;20387;-74
2022/03/19 10:25:18;;;;;;;9.77;2.33;;;19.30;99.90;;;;;;5070654;28;20032;-75
2022/03/19 10:27:46;;;;;;;10.30;1.77;;;19.40;99.90;;;;;;5054804;28;20036;-73
2022/03/19 10:30:16;;;;;;;5.97;1.33;;;19.30;99.90;;;;;;5059582;28;20036;-73
2022/03/19 10:32:49;;;;;;;4.15;1.45;;;19.30;99.90;;;;;;5053848;28;20032;-72
2022/03/19 10:35:30;;;;;;;8.55;1.88;;;19.30;99.90;;;;;;5061861;28;20037;-71
2022/03/19 10:38:05;;;;;;;5.78;1.17;;;19.30;99.90;;;;;;5052853;28;20154;-73
2022/03/19 10:40:44;;;;;;;7.87;1.60;;;19.20;99.90;;;;;;5062399;28;20037;-74
2022/03/19 10:43:13;;;;;;;4.10;1.10;;;19.20;99.90;;;;;;5069861;28;20413;-74
2022/03/19 10:45:50;;;;;;;6.10;1.65;;;19.20;99.90;;;;;;5071439;28;20044;-73
2022/03/19 10:48:22;;;;;;;5.88;1.65;;;19.20;99.90;;;;;;5068531;28;20098;-73
2022/03/19 10:50:52;;;;;;;4.32;1.02;;;19.10;99.90;;;;;;5062731;28;20084;-73
2022/03/19 10:53:21;;;;;;;4.72;1.67;;;19.10;99.90;;;;;;5058484;28;20032;-73
2022/03/19 10:55:48;;;;;;;3.33;1.33;;;19.10;99.90;;;;;;5062457;28;20483;-74
2022/03/19 10:58:16;;;;;;;8.50;1.70;;;19.10;99.90;;;;;;5051741;28;20107;-74
2022/03/19 11:00:48;;;;;;;5.18;1.02;;;19.10;99.90;;;;;;5067832;28;20032;-74
2022/03/19 11:03:27;;;;;;;9.05;1.90;;;19.10;99.90;;;;;;5063666;28;20086;-74
2022/03/19 11:06:05;;;;;;;11.23;1.33;;;19.10;99.90;;;;;;5052942;28;20068;-74
2022/03/19 11:08:41;;;;;;;7.55;1.10;;;19.00;99.90;;;;;;5055200;28;20036;-73
2022/03/19 11:11:19;;;;;;;13.18;1.98;;;19.00;99.90;;;;;;5068163;28;20040;-74
2022/03/19 11:13:49;;;;;;;4.50;1.88;;;18.90;99.90;;;;;;5075279;28;20024;-75
2022/03/19 11:16:18;;;;;;;6.03;2.08;;;18.90;99.90;;;;;;5064648;28;20055;-73
2022/03/19 11:18:47;;;;;;;8.18;1.50;;;18.80;99.90;;;;;;5064910;28;20028;-73
2022/03/19 11:21:15;;;;;;;12.20;1.92;;;18.80;99.90;;;;;;5067993;28;20395;-73
2022/03/19 11:23:56;;;;;;;6.78;1.77;;;18.70;99.90;;;;;;5058214;28;20024;-72
2022/03/19 11:26:28;;;;;;;9.73;1.70;;;18.60;99.90;;;;;;5060324;28;20032;-73
2022/03/19 11:28:57;;;;;;;8.77;1.70;;;18.60;99.90;;;;;;5059356;28;20029;-73
2022/03/19 11:31:33;;;;;;;2.35;0.80;;;18.50;99.90;;;;;;5068375;28;20242;-74
2022/03/19 11:34:16;;;;;;;6.75;1.60;;;18.40;99.90;;;;;;5064131;28;20044;-73
2022/03/19 11:37:03;;;;;;;9.38;1.35;;;18.30;99.90;;;;;;5070399;28;20024;-73
2022/03/19 11:39:30;;;;;;;7.45;1.27;;;18.30;99.90;;;;;;5068290;28;20036;-72
2022/03/19 11:41:59;;;;;;;4.15;1.30;;;18.20;99.90;;;;;;5055727;28;20429;-75
2022/03/19 11:44:28;;;;;;;5.00;1.17;;;18.20;99.90;;;;;;5055100;28;20071;-73
2022/03/19 11:47:13;;;;;;;4.95;1.60;;;18.10;99.90;;;;;;5051026;28;20041;-75
2022/03/19 11:49:55;;;;;;;6.72;0.82;;;18.10;99.90;;;;;;5069275;28;20029;-74
2022/03/19 11:52:28;;;;;;;8.20;1.88;;;18.00;99.90;;;;;;5057032;28;20035;-77
2022/03/19 11:55:04;;;;;;;5.85;1.10;;;18.00;99.90;;;;;;5079073;28;20386;-74
2022/03/19 11:57:47;;;;;;;7.43;1.38;;;18.00;99.90;;;;;;5054346;28;20052;-73
2022/03/19 12:00:19;;;;;;;8.10;1.35;;;17.90;99.90;;;;;;5050866;28;20021;-73
2022/03/19 12:03:07;;;;;;;4.78;1.65;;;17.90;99.90;;;;;;5054644;28;20033;-73
2022/03/19 12:05:37;;;;;;;5.57;1.70;;;17.90;99.90;;;;;;5058309;28;20040;-75
2022/03/19 12:08:12;;;;;;;8.45;1.15;;;17.90;99.90;;;;;;5063995;28;20036;-74
2022/03/19 12:11:01;;;;;;;8.68;2.45;;;17.90;99.90;;;;;;5054760;28;20025;-72
2022/03/19 12:13:28;;;;;;;9.00;1.25;;;17.80;99.90;;;;;;5061387;28;20031;-74
2022/03/19 12:15:56;;;;;;;4.75;1.67;;;17.80;99.90;;;;;;5064923;28;20040;-74
2022/03/19 12:18:42;;;;;;;5.03;1.13;;;17.80;99.90;;;;;;5053833;28;20032;-74
2022/03/19 12:21:09;;;;;;;8.65;1.45;;;17.80;99.90;;;;;;5051317;28;20057;-74
2022/03/19 12:23:42;;;;;;;4.22;1.52;;;17.80;99.90;;;;;;5057664;28;20033;-76
2022/03/19 12:26:13;;;;;;;6.95;1.35;;;17.80;99.90;;;;;;5062497;28;20067;-75
2022/03/19 12:28:42;;;;;;;7.05;1.00;;;17.90;99.90;;;;;;5053926;28;20040;-74
2022/03/19 12:31:16;;;;;;;5.35;1.13;;;17.90;99.90;;;;;;5059131;28;20056;-77
2022/03/19 12:33:43;;;;;;;7.90;1.27;;;17.90;99.90;;;;;;5055636;28;20036;-75
2022/03/19 12:36:19;;;;;;;10.43;1.35;;;17.80;99.90;;;;;;5062792;28;20024;-75
2022/03/19 12:38:48;;;;;;;9.52;2.17;;;17.90;99.90;;;;;;5067504;28;20390;-75
2022/03/19 12:41:24;;;;;;;4.65;1.27;;;17.90;99.90;;;;;;5052272;28;20033;-76
2022/03/19 12:43:52;;;;;;;3.78;1.40;;;17.90;99.90;;;;;;5065173;28;20052;-76
2022/03/19 12:46:33;;;;;;;11.32;2.47;;;17.90;99.90;;;;;;5071246;28;20128;-75
2022/03/19 12:49:17;;;;;;;3.72;0.85;;;17.90;99.90;;;;;;5069753;28;20078;-74
2022/03/19 12:51:49;;;;;;;12.90;2.40;;;17.90;99.90;;;;;;5064723;28;20435;-73
2022/03/19 12:54:43;;;;;;;9.13;1.13;;;17.90;99.90;;;;;;5071845;28;20073;-72
2022/03/19 12:57:12;;;;;;;5.82;1.40;;;18.00;99.90;;;;;;5077310;28;20044;-73
2022/03/19 12:59:52;;;;;;;7.95;1.98;;;18.00;99.90;;;;;;5067547;28;20048;-74
2022/03/19 13:02:19;;;;;;;5.07;1.02;;;17.90;99.90;;;;;;5050217;28;20068;-74
2022/03/19 13:04:47;;;;;;;5.50;1.92;;;17.90;99.90;;;;;;5060048;28;20123;-73
2022/03/19 13:07:22;;;;;;;9.25;2.47;;;17.90;99.90;;;;;;5068601;28;20035;-70
2022/03/19 13:09:50;;;;;;;5.45;1.90;;;17.80;99.90;;;;;;5050579;28;20056;-71
2022/03/19 13:12:22;;;;;;;6.13;1.23;;;17.80;99.90;;;;;;5052800;28;20037;-73
2022/03/19 13:14:57;;;;;;;6.00;1.80;;;17.70;99.90;;;;;;5065834;28;20028;-73